Time;durP1;ratioP1;P1;durP2;ratioP2;P2;SDS_P1;SDS_P2;PMS_P1;PMS_P2;Temp;Humidity;BMP_temperature;BMP_pressure;BME280_temperature;BME280_humidity;BME280_pressure;Samples;Min_cycle;Max_cycle;Signal;HPM_P1;HPM_P2
2022/12/14 00:01:29;;;;;;;;;;;;;;;18.18;57.56;100964.75;7398712;19;1926;-37
2022/12/14 00:03:58;;;;;;;;;;;;;;;18.17;57.32;100971.09;7400140;19;1734;-37
2022/12/14 00:06:27;;;;;;;;;;;;;;;18.27;58.38;100981.91;7400604;19;1737;-37
2022/12/14 00:08:56;;;;;;;;;;;;;;;18.77;57.36;100976.84;7401367;19;2054;-37
2022/12/14 00:11:24;;;;;;;;;;;;;;;19.58;55.55;100977.09;7401123;19;1605;-37
2022/12/14 00:13:56;;;;;;;;;;;;;;;20.12;54.07;100983.13;7401162;19;1793;-37
2022/12/14 00:16:25;;;;;;;;;;;;;;;20.18;54.05;100990.63;7400410;19;1633;-37
2022/12/14 00:18:54;;;;;;;;;;;;;;;20.43;53.25;100983.88;7401722;19;1675;-37
2022/12/14 00:21:23;;;;;;;;;;;;;;;20.52;53.54;100987.56;7400188;19;1965;-37
2022/12/14 00:23:52;;;;;;;;;;;;;;;20.54;53.37;100990.13;7400781;19;2052;-37
2022/12/14 00:26:22;;;;;;;;;;;;;;;20.53;53.27;100970.47;7401298;19;1847;-37
2022/12/14 00:28:51;;;;;;;;;;;;;;;20.46;53.25;100978.22;7401276;19;1899;-37
2022/12/14 00:31:21;;;;;;;;;;;;;;;20.14;54.01;100985.66;7399842;19;1686;-37
2022/12/14 00:33:50;;;;;;;;;;;;;;;19.95;54.55;100965.81;7400377;19;1760;-37
2022/12/14 00:36:18;;;;;;;;;;;;;;;19.73;55.19;100974.09;7399791;19;1875;-37
2022/12/14 00:38:47;;;;;;;;;;;;;;;19.63;55.49;100974.00;7399700;19;1849;-37
2022/12/14 00:41:15;;;;;;;;;;;;;;;19.48;55.65;100954.75;7399087;19;1920;-37
2022/12/14 00:43:43;;;;;;;;;;;;;;;19.61;55.69;100987.56;7399347;19;1621;-37
2022/12/14 00:46:11;;;;;;;;;;;;;;;19.49;55.79;100961.81;7399644;19;1631;-37
2022/12/14 00:48:42;;;;;;;;;;;;;;;19.58;55.55;100982.47;7400440;19;1718;-37
2022/12/14 00:51:13;;;;;;;;;;;;;;;19.57;55.55;100979.91;7400250;19;1953;-37
2022/12/14 00:53:41;;;;;;;;;;;;;;;19.51;55.67;100991.19;7399982;19;1568;-37
2022/12/14 00:56:10;;;;;;;;;;;;;;;19.56;55.64;100988.97;7399347;19;1919;-37
2022/12/14 00:58:38;;;;;;;;;;;;;;;19.57;55.59;100983.44;7400306;19;1933;-37
2022/12/14 01:01:07;;;;;;;;;;;;;;;19.58;55.49;100979.78;7393951;19;1848;-37
2022/12/14 01:03:36;;;;;;;;;;;;;;;19.64;55.38;100987.28;7396924;19;1791;-37
2022/12/14 01:06:06;;;;;;;;;;;;;;;19.68;55.08;100986.03;7398632;19;1494;-37
2022/12/14 01:08:36;;;;;;;;;;;;;;;19.71;54.92;100982.25;7399630;19;1656;-38
2022/12/14 01:11:06;;;;;;;;;;;;;;;19.67;55.12;100976.28;7398569;19;1548;-37
2022/12/14 01:13:35;;;;;;;;;;;;;;;19.69;55.43;100986.88;7399119;19;1608;-37
2022/12/14 01:16:07;;;;;;;;;;;;;;;19.65;55.37;100982.78;7399696;19;2199;-37
2022/12/14 01:18:36;;;;;;;;;;;;;;;19.70;55.39;100979.72;7401988;19;1853;-37
2022/12/14 01:21:15;;;;;;;;;;;;;;;19.65;55.38;100966.69;7406346;19;1854;-37
2022/12/14 01:23:43;;;;;;;;;;;;;;;19.68;55.28;100956.53;7406492;19;1642;-37
2022/12/14 01:26:12;;;;;;;;;;;;;;;19.61;55.44;100965.25;7406141;19;1826;-37
2022/12/14 01:28:40;;;;;;;;;;;;;;;19.65;55.07;100956.78;7405932;19;1726;-37
2022/12/14 01:31:10;;;;;;;;;;;;;;;19.64;55.23;100954.25;7405867;19;1830;-37
2022/12/14 01:33:38;;;;;;;;;;;;;;;19.55;55.45;100960.44;7405379;19;1936;-37
2022/12/14 01:36:07;;;;;;;;;;;;;;;19.55;55.38;100955.06;7405942;19;1928;-37
2022/12/14 01:38:38;;;;;;;;;;;;;;;19.53;55.36;100957.88;7406073;19;1392;-37
2022/12/14 01:41:07;;;;;;;;;;;;;;;19.65;54.93;100958.63;7404599;19;1866;-37
2022/12/14 01:43:48;;;;;;;;;;;;;;;19.63;55.29;100952.56;7404334;19;1694;-37
2022/12/14 01:46:19;;;;;;;;;;;;;;;19.75;54.68;100969.44;7402428;19;1585;-38
2022/12/14 01:48:48;;;;;;;;;;;;;;;19.63;55.14;100947.19;7404156;19;1734;-37
2022/12/14 01:51:16;;;;;;;;;;;;;;;19.57;55.21;100972.72;7404408;19;1818;-37
2022/12/14 01:53:48;;;;;;;;;;;;;;;19.63;55.09;100969.50;7403962;19;1675;-37
2022/12/14 01:56:17;;;;;;;;;;;;;;;19.64;55.04;100970.34;7402527;19;1519;-37
2022/12/14 01:58:45;;;;;;;;;;;;;;;19.66;54.70;100963.03;7403999;19;1546;-37
2022/12/14 02:01:14;;;;;;;;;;;;;;;19.74;54.70;100965.06;7403544;19;1849;-37
2022/12/14 02:03:44;;;;;;;;;;;;;;;19.75;54.68;100972.97;7402210;19;1632;-37
2022/12/14 02:06:14;;;;;;;;;;;;;;;19.67;55.19;100976.28;7402487;19;1760;-37
2022/12/14 02:08:45;;;;;;;;;;;;;;;19.65;54.71;100953.25;7403299;19;1430;-37
2022/12/14 02:11:21;;;;;;;;;;;;;;;19.60;55.08;100967.09;7399984;19;1734;-37
2022/12/14 02:13:49;;;;;;;;;;;;;;;19.64;54.62;100975.72;7402303;19;1778;-37
2022/12/14 02:16:17;;;;;;;;;;;;;;;19.75;54.70;100972.97;7402925;19;1462;-37
2022/12/14 02:18:45;;;;;;;;;;;;;;;19.69;54.55;100962.75;7402394;19;1673;-37
2022/12/14 02:21:20;;;;;;;;;;;;;;;19.66;54.32;100965.72;7402579;19;1857;-37
2022/12/14 02:24:03;;;;;;;;;;;;;;;19.66;54.36;100963.88;7402794;19;2038;-37
2022/12/14 02:26:55;;;;;;;;;;;;;;;19.76;54.63;100968.47;7402934;19;1629;-37
2022/12/14 02:29:34;;;;;;;;;;;;;;;19.69;54.65;100946.63;7402074;19;2247;-37
2022/12/14 02:32:10;;;;;;;;;;;;;;;19.61;54.89;100947.31;7402074;19;1545;-37
2022/12/14 02:34:42;;;;;;;;;;;;;;;19.81;53.65;100948.25;7402787;19;1813;-37
2022/12/14 02:37:16;;;;;;;;;;;;;;;19.46;53.38;100941.47;7401996;19;1447;-37
2022/12/14 02:39:50;;;;;;;;;;;;;;;18.91;54.65;100962.31;7401958;19;1696;-37
2022/12/14 02:42:24;;;;;;;;;;;;;;;18.27;56.86;100964.00;7401582;19;1849;-37
2022/12/14 02:44:59;;;;;;;;;;;;;;;18.01;58.27;100958.09;7402752;19;1703;-38
2022/12/14 02:47:28;;;;;;;;;;;;;;;18.08;57.87;100940.59;7403199;19;1602;-37
2022/12/14 02:50:03;;;;;;;;;;;;;;;18.11;57.20;100920.75;7400550;19;1762;-37
2022/12/14 02:52:38;;;;;;;;;;;;;;;18.23;56.72;100946.50;7402600;19;1929;-37
2022/12/14 02:55:10;;;;;;;;;;;;;;;18.26;56.23;100954.28;7402390;19;1625;-37
2022/12/14 02:57:41;;;;;;;;;;;;;;;18.18;56.41;100940.66;7402936;19;1038;-37
2022/12/14 03:02:53;;;;;;;;;;;;;;;18.15;56.18;100958.81;7397175;19;1837;-64
2022/12/14 03:05:21;;;;;;;;;;;;;;;18.08;56.77;100947.75;7405383;19;1435;-64
2022/12/14 03:07:52;;;;;;;;;;;;;;;18.13;56.33;100956.25;7406297;19;1754;-64
2022/12/14 03:10:29;;;;;;;;;;;;;;;18.06;56.23;100934.50;7404326;19;1643;-64
2022/12/14 03:13:04;;;;;;;;;;;;;;;18.05;56.25;100967.56;7405190;19;1775;-64
2022/12/14 03:15:33;;;;;;;;;;;;;;;17.98;56.70;100952.13;7405392;19;1738;-64
2022/12/14 03:18:07;;;;;;;;;;;;;;;18.12;57.06;100951.88;7405956;19;1478;-64
2022/12/14 03:20:37;;;;;;;;;;;;;;;18.89;54.82;100937.47;7405244;19;1535;-64
2022/12/14 03:23:08;;;;;;;;;;;;;;;19.48;53.65;100933.31;7404064;19;1849;-64
2022/12/14 03:25:39;;;;;;;;;;;;;;;19.98;52.66;100914.56;7404509;19;1609;-64
2022/12/14 03:28:09;;;;;;;;;;;;;;;20.20;52.01;100929.56;7404839;19;1391;-64
2022/12/14 03:30:40;;;;;;;;;;;;;;;20.42;51.39;100932.97;7404696;19;1675;-64
2022/12/14 03:33:13;;;;;;;;;;;;;;;20.48;51.29;100932.41;7403382;19;1572;-64
2022/12/14 03:35:45;;;;;;;;;;;;;;;20.47;51.60;100930.72;7402665;19;1676;-64
2022/12/14 03:38:18;;;;;;;;;;;;;;;20.44;51.59;100931.00;7404616;19;1659;-64
2022/12/14 03:40:52;;;;;;;;;;;;;;;20.19;52.00;100922.53;7402867;19;1573;-64
2022/12/14 03:43:25;;;;;;;;;;;;;;;19.85;52.91;100920.16;7400861;19;1851;-64
2022/12/14 03:45:57;;;;;;;;;;;;;;;19.90;53.00;100926.97;7402354;19;1343;-64
2022/12/14 03:48:32;;;;;;;;;;;;;;;19.66;53.82;100912.06;7403174;19;1390;-64
2022/12/14 03:51:04;;;;;;;;;;;;;;;19.79;53.38;100919.88;7403422;19;1554;-64
2022/12/14 03:53:38;;;;;;;;;;;;;;;19.77;53.51;100911.94;7403682;19;1623;-64
2022/12/14 03:56:11;;;;;;;;;;;;;;;19.66;53.76;100920.94;7404637;19;1596;-64
2022/12/14 03:58:44;;;;;;;;;;;;;;;19.71;53.44;100909.81;7403489;19;1419;-64
2022/12/14 04:01:16;;;;;;;;;;;;;;;19.78;53.50;100916.34;7402771;19;1525;-64
2022/12/14 04:03:51;;;;;;;;;;;;;;;19.68;54.31;100915.44;7401301;19;1856;-63
2022/12/14 04:06:29;;;;;;;;;;;;;;;19.71;54.30;100917.88;7402945;19;1625;-64
2022/12/14 04:09:04;;;;;;;;;;;;;;;19.67;54.56;100921.78;7400745;19;1651;-64
2022/12/14 04:19:48;;;;;;;;;;;;;;;19.58;55.72;100906.53;7402816;19;1593;-64
2022/12/14 04:22:18;;;;;;;;;;;;;;;19.67;55.53;100901.16;7399824;19;1859;-65
2022/12/14 04:27:34;;;;;;;;;;;;;;;19.38;55.98;100903.75;7404325;19;1319;-62
2022/12/14 04:30:00;;;;;;;;;;;;;;;19.45;56.24;100904.91;7403528;19;1561;-65
2022/12/14 04:32:31;;;;;;;;;;;;;;;19.53;56.27;100895.34;7402151;19;1410;-62
2022/12/14 04:35:05;;;;;;;;;;;;;;;19.58;56.16;100891.28;7401288;19;1358;-62
2022/12/14 04:37:36;;;;;;;;;;;;;;;19.64;56.15;100887.19;7401349;19;1335;-62
2022/12/14 04:40:08;;;;;;;;;;;;;;;19.58;56.59;100885.06;7399938;19;1370;-63
2022/12/14 04:42:40;;;;;;;;;;;;;;;19.62;56.61;100881.13;7402057;19;1855;-63
2022/12/14 04:45:12;;;;;;;;;;;;;;;19.58;56.85;100874.34;7402627;19;1719;-65
2022/12/14 04:47:44;;;;;;;;;;;;;;;19.37;57.44;100861.81;7402584;19;1498;-62
2022/12/14 04:50:20;;;;;;;;;;;;;;;19.40;57.83;100890.22;7400821;19;1631;-62
2022/12/14 04:52:51;;;;;;;;;;;;;;;19.39;57.84;100878.63;7402410;19;1347;-63
2022/12/14 04:55:25;;;;;;;;;;;;;;;19.47;58.00;100878.78;7410325;19;1169;-64
2022/12/14 04:57:56;;;;;;;;;;;;;;;19.61;58.33;100882.94;7410521;19;1375;-63
2022/12/14 05:00:26;;;;;;;;;;;;;;;19.59;58.56;100874.16;7410090;19;1241;-65
2022/12/14 05:03:03;;;;;;;;;;;;;;;19.58;58.92;100890.44;7406486;19;1881;-64
2022/12/14 05:05:38;;;;;;;;;;;;;;;19.80;58.56;100905.50;7405476;19;1530;-68
2022/12/14 05:08:09;;;;;;;;;;;;;;;19.82;58.73;100887.41;7408432;19;1552;-61
2022/12/14 05:10:42;;;;;;;;;;;;;;;19.88;58.42;100891.38;7407858;19;1506;-61
2022/12/14 05:13:15;;;;;;;;;;;;;;;19.87;58.86;100893.19;7406899;19;1340;-61
2022/12/14 05:15:45;;;;;;;;;;;;;;;19.90;58.50;100884.88;7407743;19;1517;-62
2022/12/14 05:18:14;;;;;;;;;;;;;;;19.88;58.60;100880.66;7409162;19;1040;-63
2022/12/14 05:20:45;;;;;;;;;;;;;;;19.84;59.60;100870.19;7404708;19;1687;-62
2022/12/14 05:23:13;;;;;;;;;;;;;;;19.94;59.48;100891.66;7403939;19;1853;-63
2022/12/14 05:25:42;;;;;;;;;;;;;;;20.00;59.09;100879.53;7408063;19;1636;-62
2022/12/14 05:28:11;;;;;;;;;;;;;;;20.03;59.15;100879.25;7406645;19;1447;-62
2022/12/14 05:30:39;;;;;;;;;;;;;;;20.09;59.57;100878.69;7403188;19;1343;-69
2022/12/14 05:33:08;;;;;;;;;;;;;;;20.05;59.85;100879.94;7408681;19;1075;-67
2022/12/14 05:35:36;;;;;;;;;;;;;;;20.10;60.06;100880.38;7407216;19;1662;-62
2022/12/14 05:38:08;;;;;;;;;;;;;;;20.22;59.89;100876.56;7407920;19;1552;-66
2022/12/14 05:40:37;;;;;;;;;;;;;;;20.23;59.78;100896.22;7408611;19;1294;-67
2022/12/14 05:43:06;;;;;;;;;;;;;;;20.30;59.81;100904.56;7406417;19;1845;-65
2022/12/14 05:45:34;;;;;;;;;;;;;;;20.29;59.94;100911.75;7409043;19;1402;-69
2022/12/14 05:48:03;;;;;;;;;;;;;;;20.19;60.74;100911.78;7407520;19;1204;-65
2022/12/14 05:50:31;;;;;;;;;;;;;;;20.17;61.20;100916.41;7406315;19;1374;-66
2022/12/14 05:53:00;;;;;;;;;;;;;;;20.16;61.10;100904.00;7407241;19;1358;-67
2022/12/14 05:55:31;;;;;;;;;;;;;;;20.19;60.90;100905.53;7409639;19;1335;-68
2022/12/14 05:57:59;;;;;;;;;;;;;;;20.07;60.05;100904.81;7407175;19;1541;-68
2022/12/14 06:00:28;;;;;;;;;;;;;;;20.07;59.95;100907.50;7408453;19;1095;-68
2022/12/14 06:02:56;;;;;;;;;;;;;;;20.09;59.66;100913.56;7408144;19;1854;-68
2022/12/14 06:05:25;;;;;;;;;;;;;;;20.10;59.64;100923.34;7404024;19;1628;-68
2022/12/14 06:07:53;;;;;;;;;;;;;;;19.97;59.33;100925.44;7406455;19;1647;-68
2022/12/14 06:10:21;;;;;;;;;;;;;;;19.96;59.41;100934.47;7405436;19;1541;-69
2022/12/14 06:12:53;;;;;;;;;;;;;;;19.96;58.95;100910.31;7408493;19;1532;-68
2022/12/14 06:15:21;;;;;;;;;;;;;;;19.84;59.47;100902.38;7407148;19;1445;-68
2022/12/14 06:17:49;;;;;;;;;;;;;;;19.25;61.62;100900.44;7407810;19;1259;-68
2022/12/14 06:20:17;;;;;;;;;;;;;;;18.74;62.63;100904.78;7407559;19;1275;-69
2022/12/14 06:22:46;;;;;;;;;;;;;;;18.22;63.49;100904.66;7406775;19;1863;-69
2022/12/14 06:25:14;;;;;;;;;;;;;;;18.04;63.63;100911.50;7407935;19;1470;-67
2022/12/14 06:27:43;;;;;;;;;;;;;;;17.98;63.42;100922.72;7397904;19;1351;-68
2022/12/14 06:30:14;;;;;;;;;;;;;;;17.86;63.49;100914.69;7403511;19;1220;-67
2022/12/14 06:32:43;;;;;;;;;;;;;;;17.83;62.86;100912.28;7403681;19;951;-67
2022/12/14 06:38:06;;;;;;;;;;;;;;;18.22;61.07;100925.19;7327989;19;12934;-68
2022/12/14 06:40:35;;;;;;;;;;;;;;;18.99;58.95;100906.22;7401797;19;1332;-68
2022/12/14 06:43:03;;;;;;;;;;;;;;;19.73;56.92;100910.53;7401602;19;1858;-68
2022/12/14 06:45:34;;;;;;;;;;;;;;;19.87;56.53;100917.34;7401074;19;1456;-69
2022/12/14 06:48:03;;;;;;;;;;;;;;;19.95;56.48;100911.28;7396312;19;1035;-68
2022/12/14 06:50:31;;;;;;;;;;;;;;;20.09;56.38;100900.16;7399208;19;1679;-68
2022/12/14 06:53:00;;;;;;;;;;;;;;;20.30;55.73;100880.41;7404779;19;1511;-69
2022/12/14 06:55:29;;;;;;;;;;;;;;;20.05;56.53;100880.81;7406081;19;1515;-68
2022/12/14 06:57:57;;;;;;;;;;;;;;;19.92;56.44;100874.84;7405618;19;1625;-68
2022/12/14 07:00:26;;;;;;;;;;;;;;;19.84;56.91;100877.38;7406448;19;987;-68
2022/12/14 07:02:57;;;;;;;;;;;;;;;19.76;57.02;100888.81;7404795;19;1856;-68
2022/12/14 07:05:25;;;;;;;;;;;;;;;19.48;57.97;100904.63;7404298;19;1618;-68
2022/12/14 07:07:53;;;;;;;;;;;;;;;18.84;59.07;100884.28;7403890;19;1387;-68
2022/12/14 07:10:22;;;;;;;;;;;;;;;18.45;60.80;100896.53;7401844;19;1339;-68
2022/12/14 07:12:50;;;;;;;;;;;;;;;18.19;61.52;100891.50;7404037;19;1191;-68
2022/12/14 07:15:18;;;;;;;;;;;;;;;18.07;61.85;100887.19;7405137;19;1334;-68
2022/12/14 07:17:47;;;;;;;;;;;;;;;17.96;62.17;100896.06;7403267;19;968;-68
2022/12/14 07:20:19;;;;;;;;;;;;;;;17.92;62.52;100883.91;7403298;19;1655;-68
2022/12/14 07:22:47;;;;;;;;;;;;;;;17.81;62.53;100882.09;7402608;19;1840;-68
2022/12/14 07:25:16;;;;;;;;;;;;;;;17.73;62.68;100887.22;7403137;19;1473;-69
2022/12/14 07:27:44;;;;;;;;;;;;;;;17.68;62.71;100897.44;7403452;19;1178;-68
2022/12/14 07:30:14;;;;;;;;;;;;;;;17.67;63.16;100927.84;7403097;19;1348;-68
2022/12/14 07:32:42;;;;;;;;;;;;;;;17.63;63.17;100926.38;7405127;19;1231;-68
2022/12/14 07:35:11;;;;;;;;;;;;;;;17.57;63.26;100927.72;7402486;19;1347;-68
2022/12/14 07:37:42;;;;;;;;;;;;;;;17.57;63.52;100948.28;7403205;19;1609;-68
2022/12/14 07:40:11;;;;;;;;;;;;;;;17.50;63.41;100942.53;7404305;19;1365;-68
2022/12/14 07:42:39;;;;;;;;;;;;;;;17.50;63.49;100939.88;7402129;19;1853;-68
2022/12/14 07:45:08;;;;;;;;;;;;;;;17.41;63.64;100928.09;7402739;19;1340;-68
2022/12/14 07:47:36;;;;;;;;;;;;;;;17.70;62.91;100933.78;7404463;19;1127;-68
2022/12/14 07:50:05;;;;;;;;;;;;;;;18.51;60.32;100916.59;7402789;19;1268;-68
2022/12/14 07:52:33;;;;;;;;;;;;;;;19.34;58.17;100930.94;7403468;19;1363;-68
2022/12/14 07:55:05;;;;;;;;;;;;;;;19.57;57.49;100926.25;7404850;19;1259;-68
2022/12/14 07:57:33;;;;;;;;;;;;;;;19.52;57.86;100925.81;7402934;19;1683;-69
2022/12/14 08:00:01;;;;;;;;;;;;;;;19.81;57.14;100945.56;7403519;19;1367;-68
2022/12/14 08:02:30;;;;;;;;;;;;;;;19.99;56.67;100918.09;7402949;19;1307;-68
2022/12/14 08:04:58;;;;;;;;;;;;;;;20.10;56.41;100919.81;7400382;19;1857;-68
2022/12/14 08:07:26;;;;;;;;;;;;;;;19.93;56.72;100918.63;7403375;19;1407;-68
2022/12/14 08:09:55;;;;;;;;;;;;;;;19.84;57.03;100941.78;7402716;19;1334;-69
2022/12/14 08:12:25;;;;;;;;;;;;;;;19.66;56.97;100929.00;7402950;19;1418;-67
2022/12/14 08:14:54;;;;;;;;;;;;;;;19.53;57.56;100916.78;7403384;19;1534;-68
2022/12/14 08:17:22;;;;;;;;;;;;;;;18.95;59.46;100925.38;7365061;19;9199;-67
2022/12/14 08:19:51;;;;;;;;;;;;;;;18.47;60.60;100942.75;7403207;19;2555;-68
2022/12/14 08:22:19;;;;;;;;;;;;;;;18.21;61.59;100945.75;7401213;19;1613;-67
2022/12/14 08:24:47;;;;;;;;;;;;;;;18.11;61.54;100931.44;7399012;19;1874;-68
2022/12/14 08:27:16;;;;;;;;;;;;;;;18.07;62.02;100935.34;7403709;19;1533;-64
2022/12/14 08:29:47;;;;;;;;;;;;;;;17.99;62.21;100938.66;7410684;19;1048;-69
2022/12/14 08:32:15;;;;;;;;;;;;;;;18.01;62.32;100938.53;7410817;19;1700;-68
2022/12/14 08:34:43;;;;;;;;;;;;;;;17.97;62.47;100918.34;7406891;19;1653;-69
2022/12/14 08:37:11;;;;;;;;;;;;;;;17.96;62.73;100935.34;7405979;19;1568;-70
2022/12/14 08:39:40;;;;;;;;;;;;;;;17.95;62.85;100933.69;7409838;19;1411;-71
2022/12/14 08:42:08;;;;;;;;;;;;;;;17.87;62.95;100924.44;7407018;19;1435;-69
2022/12/14 08:44:37;;;;;;;;;;;;;;;17.85;63.13;100904.97;7406223;19;1881;-68
2022/12/14 08:47:08;;;;;;;;;;;;;;;17.87;63.00;100905.72;7410102;19;1585;-68
2022/12/14 08:49:36;;;;;;;;;;;;;;;17.85;63.39;100918.34;7408785;19;1494;-67
2022/12/14 08:52:04;;;;;;;;;;;;;;;17.78;63.39;100918.94;7409814;19;1125;-68
2022/12/14 08:54:34;;;;;;;;;;;;;;;17.74;63.67;100934.38;7409223;19;1735;-69
2022/12/14 08:57:02;;;;;;;;;;;;;;;17.74;63.73;100931.72;7407588;19;1827;-67
2022/12/14 08:59:31;;;;;;;;;;;;;;;17.74;63.43;100915.66;7408413;19;1370;-68
2022/12/14 09:01:59;;;;;;;;;;;;;;;17.70;63.44;100917.72;7407375;19;1436;-67
2022/12/14 09:04:30;;;;;;;;;;;;;;;17.67;63.61;100911.78;7406462;19;1864;-68
2022/12/14 09:06:59;;;;;;;;;;;;;;;17.67;63.78;100909.13;7405517;19;1622;-67
2022/12/14 09:09:27;;;;;;;;;;;;;;;17.66;64.04;100915.44;7409591;19;1418;-70
2022/12/14 09:11:55;;;;;;;;;;;;;;;17.66;63.94;100888.69;7407075;19;1389;-69
2022/12/14 09:14:24;;;;;;;;;;;;;;;17.71;64.09;100899.88;7408729;19;1366;-69
2022/12/14 09:16:52;;;;;;;;;;;;;;;17.67;63.96;100893.06;7408167;19;1355;-68
2022/12/14 09:19:21;;;;;;;;;;;;;;;17.70;63.60;100895.47;7410018;19;992;-68
2022/12/14 09:21:52;;;;;;;;;;;;;;;17.65;64.11;100889.69;7405040;19;1730;-67
2022/12/14 09:24:21;;;;;;;;;;;;;;;17.64;64.22;100890.63;7405591;19;1855;-68
2022/12/14 09:26:49;;;;;;;;;;;;;;;17.68;64.05;100868.00;7406544;19;1594;-69
2022/12/14 09:29:19;;;;;;;;;;;;;;;17.67;64.09;100887.72;7404656;19;1416;-67
2022/12/14 09:31:47;;;;;;;;;;;;;;;17.58;64.34;100886.63;7408414;19;1565;-67
2022/12/14 09:34:16;;;;;;;;;;;;;;;17.66;64.29;100878.00;7409811;19;980;-68
2022/12/14 09:36:44;;;;;;;;;;;;;;;17.60;64.41;100884.69;7408959;19;1395;-70
2022/12/14 09:39:16;;;;;;;;;;;;;;;18.54;61.70;100876.97;7406477;19;1664;-66
2022/12/14 09:41:51;;;;;;;;;;;;;;;19.01;60.04;100872.09;7407331;19;1641;-66
2022/12/14 09:44:23;;;;;;;;;;;;;;;19.16;59.96;100874.44;7405594;19;1837;-68
2022/12/14 09:46:56;;;;;;;;;;;;;;;19.34;59.46;100866.59;7407112;19;1585;-69
2022/12/14 09:49:28;;;;;;;;;;;;;;;19.51;59.38;100870.47;7407872;19;1533;-70
2022/12/14 09:51:57;;;;;;;;;;;;;;;19.53;59.21;100865.84;7407583;19;973;-67
2022/12/14 09:54:30;;;;;;;;;;;;;;;19.50;59.41;100876.81;7405852;19;1727;-68
2022/12/14 09:57:00;;;;;;;;;;;;;;;19.65;59.02;100875.47;7407543;19;1652;-68
2022/12/14 09:59:30;;;;;;;;;;;;;;;19.70;58.73;100867.88;7405174;19;1629;-68
2022/12/14 10:02:02;;;;;;;;;;;;;;;19.59;58.99;100859.91;7404115;19;1449;-69
2022/12/14 10:04:42;;;;;;;;;;;;;;;19.41;59.66;100863.25;7404483;19;1859;-68
2022/12/14 10:07:15;;;;;;;;;;;;;;;18.94;60.82;100859.38;7405577;19;1367;-68
2022/12/14 10:09:50;;;;;;;;;;;;;;;18.57;61.79;100863.34;7403682;19;1420;-68
2022/12/14 10:12:24;;;;;;;;;;;;;;;18.32;62.44;100872.59;7407132;19;1383;-68
2022/12/14 10:15:00;;;;;;;;;;;;;;;18.20;62.95;100866.44;7407541;19;1541;-68
2022/12/14 10:17:34;;;;;;;;;;;;;;;18.12;63.45;100858.19;7408297;19;927;-67
2022/12/14 10:20:07;;;;;;;;;;;;;;;18.07;63.28;100868.44;7403261;19;1527;-67
2022/12/14 10:22:37;;;;;;;;;;;;;;;18.06;63.12;100853.34;7406625;19;1586;-68
2022/12/14 10:25:11;;;;;;;;;;;;;;;18.06;63.49;100872.09;7404975;19;1845;-68
2022/12/14 10:27:42;;;;;;;;;;;;;;;17.95;63.54;100859.59;7406469;19;1645;-69
2022/12/14 10:30:16;;;;;;;;;;;;;;;17.87;63.92;100832.63;7405706;19;1529;-68
2022/12/14 10:32:48;;;;;;;;;;;;;;;17.86;63.95;100847.81;7404139;19;1424;-69
2022/12/14 10:35:18;;;;;;;;;;;;;;;17.88;64.04;100835.16;7403612;19;1707;-66
2022/12/14 10:37:49;;;;;;;;;;;;;;;17.87;63.78;100822.78;7404405;19;1434;-66
2022/12/14 10:40:24;;;;;;;;;;;;;;;17.76;64.06;100819.25;7407063;19;1510;-65
2022/12/14 10:42:59;;;;;;;;;;;;;;;17.67;64.30;100811.00;7403131;19;1503;-66
2022/12/14 10:45:31;;;;;;;;;;;;;;;17.72;64.67;100810.63;7405304;19;1853;-66
2022/12/14 10:48:06;;;;;;;;;;;;;;;17.67;64.45;100816.38;7405521;19;952;-65
2022/12/14 10:50:37;;;;;;;;;;;;;;;17.61;64.63;100803.50;7401030;19;1542;-65
2022/12/14 10:53:06;;;;;;;;;;;;;;;17.61;64.62;100792.78;7404068;19;1548;-65
2022/12/14 10:55:41;;;;;;;;;;;;;;;17.61;64.58;100781.25;7404832;19;1557;-65
2022/12/14 10:58:12;;;;;;;;;;;;;;;18.34;62.66;100776.09;7404792;19;1392;-65
2022/12/14 11:00:40;;;;;;;;;;;;;;;19.37;59.58;100786.72;7406309;19;1348;-65
2022/12/14 11:03:14;;;;;;;;;;;;;;;19.86;58.22;100782.31;7406505;19;994;-66
2022/12/14 11:05:46;;;;;;;;;;;;;;;19.73;58.68;100781.75;7402282;19;1849;-65
2022/12/14 11:08:34;;;;;;;;;;;;;;;19.77;58.73;100782.31;7404165;19;1285;-66
2022/12/14 11:11:11;;;;;;;;;;;;;;;19.85;58.37;100758.31;7404949;19;1624;-65
2022/12/14 11:13:39;;;;;;;;;;;;;;;19.85;58.26;100758.31;7403335;19;1332;-65
2022/12/14 11:16:19;;;;;;;;;;;;;;;19.82;58.41;100747.88;7404277;19;1526;-66
2022/12/14 11:18:56;;;;;;;;;;;;;;;19.87;58.19;100767.06;7404360;19;1021;-66
2022/12/14 11:21:30;;;;;;;;;;;;;;;19.86;58.46;100760.84;7405407;19;1680;-65
2022/12/14 11:23:58;;;;;;;;;;;;;;;19.84;58.38;100776.25;7403484;19;1841;-66
2022/12/14 11:26:31;;;;;;;;;;;;;;;19.73;58.48;100776.38;7404480;19;1379;-65
2022/12/14 11:29:01;;;;;;;;;;;;;;;19.79;58.45;100773.13;7404134;19;1629;-66
2022/12/14 11:31:32;;;;;;;;;;;;;;;19.77;58.53;100785.84;7402452;19;1696;-66
2022/12/14 11:34:01;;;;;;;;;;;;;;;19.80;58.40;100772.16;7402837;19;1484;-66
2022/12/14 11:36:31;;;;;;;;;;;;;;;19.79;58.52;100732.03;7404812;19;1762;-66
2022/12/14 11:39:00;;;;;;;;;;;;;;;19.81;58.33;100733.59;7403296;19;1420;-66
2022/12/14 11:41:34;;;;;;;;;;;;;;;19.83;58.08;100734.28;7403020;19;1448;-66
2022/12/14 11:44:03;;;;;;;;;;;;;;;19.79;58.30;100724.84;7402570;19;1849;-66
2022/12/14 11:46:46;;;;;;;;;;;;;;;19.70;58.52;100704.19;7403507;19;1352;-66
2022/12/14 11:49:22;;;;;;;;;;;;;;;19.82;58.21;100713.81;7403060;19;1347;-64
2022/12/14 11:51:56;;;;;;;;;;;;;;;19.94;57.97;100698.41;7405282;19;968;-68
2022/12/14 11:54:25;;;;;;;;;;;;;;;19.83;58.33;100699.41;7400510;19;1523;-67
2022/12/14 11:56:59;;;;;;;;;;;;;;;19.35;59.93;100728.88;7402364;19;1401;-64
2022/12/14 11:59:31;;;;;;;;;;;;;;;18.87;60.98;100733.13;7402346;19;1443;-67
2022/12/14 12:02:10;;;;;;;;;;;;;;;18.51;61.88;100711.22;7401792;19;1346;-65
2022/12/14 12:04:43;;;;;;;;;;;;;;;18.28;62.56;100724.78;7400811;19;1845;-65
2022/12/14 12:07:14;;;;;;;;;;;;;;;18.18;62.74;100718.50;7400768;19;1652;-68
2022/12/14 12:09:42;;;;;;;;;;;;;;;18.19;62.93;100719.38;7401056;19;1367;-72
2022/12/14 12:12:21;;;;;;;;;;;;;;;18.12;62.99;100726.22;7403158;19;1235;-75
2022/12/14 12:14:54;;;;;;;;;;;;;;;18.08;63.20;100722.94;7402486;19;1427;-69
2022/12/14 12:17:30;;;;;;;;;;;;;;;18.06;63.27;100730.25;7403687;19;1212;-70
2022/12/14 12:19:59;;;;;;;;;;;;;;;17.97;63.58;100737.25;7401352;19;1387;-69
2022/12/14 12:22:30;;;;;;;;;;;;;;;17.87;64.52;100713.09;7402806;19;1319;-74
2022/12/14 12:25:00;;;;;;;;;;;;;;;17.79;65.18;100738.78;7402422;19;1850;-68
2022/12/14 12:27:31;;;;;;;;;;;;;;;17.75;66.29;100730.16;7401505;19;1546;-68
2022/12/14 12:30:04;;;;;;;;;;;;;;;17.81;66.06;100715.41;7402701;19;1593;-69
2022/12/14 12:32:34;;;;;;;;;;;;;;;17.68;64.98;100711.06;7404351;19;1018;-69
2022/12/14 12:35:05;;;;;;;;;;;;;;;17.75;65.35;100710.59;7400975;19;1417;-70
2022/12/14 12:37:36;;;;;;;;;;;;;;;17.74;64.30;100709.72;7400438;19;1438;-69
2022/12/14 12:40:08;;;;;;;;;;;;;;;17.71;66.18;100704.63;7402249;19;1489;-69
2022/12/14 12:42:43;;;;;;;;;;;;;;;17.23;65.96;100656.91;7403668;19;892;-67
2022/12/14 12:45:18;;;;;;;;;;;;;;;17.54;67.88;100723.91;7399901;19;1857;-68
2022/12/14 12:47:49;;;;;;;;;;;;;;;17.56;67.65;100738.84;7402088;19;1683;-67
2022/12/14 12:50:18;;;;;;;;;;;;;;;17.55;67.51;100712.22;7399017;19;1601;-68
2022/12/14 12:52:52;;;;;;;;;;;;;;;17.48;67.21;100707.38;7401010;19;1530;-68
2022/12/14 12:55:22;;;;;;;;;;;;;;;17.49;66.95;100722.47;7402147;19;1331;-67
2022/12/14 12:57:55;;;;;;;;;;;;;;;17.45;67.10;100710.31;7401717;19;1380;-67
2022/12/14 13:00:25;;;;;;;;;;;;;;;17.45;67.06;100725.53;7402883;19;980;-68
2022/12/14 13:02:56;;;;;;;;;;;;;;;17.46;67.10;100716.50;7402359;19;1751;-67
2022/12/14 13:05:26;;;;;;;;;;;;;;;17.54;66.20;100721.22;7397212;19;1864;-71
2022/12/14 13:07:56;;;;;;;;;;;;;;;17.85;64.97;100723.06;7400428;19;1632;-68
2022/12/14 13:10:26;;;;;;;;;;;;;;;18.94;62.03;100726.25;7398497;19;1430;-69
2022/12/14 13:12:58;;;;;;;;;;;;;;;19.51;60.52;100722.97;7402144;19;1364;-66
2022/12/14 13:15:28;;;;;;;;;;;;;;;19.70;60.32;100690.78;7405209;19;1414;-69
2022/12/14 13:17:59;;;;;;;;;;;;;;;19.52;61.05;100692.47;7405407;19;1412;-70
2022/12/14 13:20:29;;;;;;;;;;;;;;;19.34;61.59;100690.50;7372139;19;8947;-68
2022/12/14 13:22:58;;;;;;;;;;;;;;;19.48;61.65;100708.84;7406102;19;1226;-69